Sardinia Vera — IBWV — position and weather

sailwx.info

Track history (hours):
 
Tides and Currents Weather Stations Pressure Air Temp Water Temp Dewpoint Dewpoint Depression Visibility Wind Speed Wind Dir Waves Ship Positions

Sardinia Vera

Last reported at 2015-Mar-05 21:33 UTC. Time now 2015-Mar-05 22:31 UTC.
Position N 40°55' E 009°31'.

; draft 5.2 m.

Type: Passenger vessel. MMSI: 247392000.

Date/timePositionNaut miles runAvg speedWind from/ knotsBaromVisibWave heightAir tempDewpointWater temp
2015-Mar-05 21:33N 40°55' E 009°31'0 0.0
2015-Mar-05 20:33N 40°55' E 009°31'0 0.0
2015-Mar-05 19:33N 40°55' E 009°31'0 0.0
2015-Mar-05 18:33N 40°55' E 009°31'0 0.0
2015-Mar-05 17:33N 40°55' E 009°31'0 0.0
2015-Mar-05 16:33N 40°55' E 009°31'0 0.0
2015-Mar-05 15:33N 40°55' E 009°31'0 0.0
2015-Mar-05 14:33N 40°55' E 009°31'0 0.0
2015-Mar-05 13:33N 40°55' E 009°31'0 0.0
2015-Mar-05 12:33N 40°55' E 009°31'0 0.0
2015-Mar-05 11:33N 40°55' E 009°31'0 0.0
2015-Mar-05 10:33N 40°55' E 009°31'0 0.0
2015-Mar-05 09:33N 40°55' E 009°31'0 0.0
2015-Mar-05 08:33N 40°55' E 009°31'0 0.0
2015-Mar-05 07:33N 40°55' E 009°31'14314.2
2015-Mar-04 21:32N 43°15' E 010°07'1616.4
2015-Mar-04 20:34N 43°31' E 010°13'4 4.1
2015-Mar-04 19:33N 43°33' E 010°18'0 0.0
2015-Mar-04 18:33N 43°33' E 010°18'2 1.8
2015-Mar-04 17:33N 43°32' E 010°16'1615.8
2015-Mar-04 16:34N 43°20' E 010°01'9 1.2
2015-Mar-04 09:11N 43°12' E 010°05'1016.1
2015-Mar-04 08:33N 43°22' E 010°09'1312.9
2015-Mar-04 07:34N 43°33' E 010°18'0 0.1
2015-Mar-04 06:33N 43°33' E 010°18'0 0.3
2015-Mar-04 05:33N 43°33' E 010°18'1313.5
2015-Mar-04 04:33N 43°20' E 010°11'1716.5
2015-Mar-04 03:32N 43°04' E 010°06'1 0.0
2015-Mar-02 22:31N 43°05' E 010°05'1414.4
2015-Mar-02 21:33N 43°18' E 010°09'1313.2
2015-Mar-02 20:34N 43°31' E 010°14'4 3.5
2015-Mar-02 19:30N 43°33' E 010°18'0 0.0
2015-Mar-02 15:06N 43°33' E 010°18'0 0.0
2015-Mar-02 14:30N 43°33' E 010°18'0 0.0
2015-Mar-02 13:12N 43°33' E 010°18'0 0.0
2015-Mar-02 11:33N 43°33' E 010°18'0 0.0
2015-Mar-02 10:15N 43°33' E 010°18'0 0.0
2015-Mar-02 09:33N 43°33' E 010°18'0 0.0
2015-Mar-02 08:30N 43°33' E 010°18'0 0.0
2015-Mar-02 07:33N 43°33' E 010°18'0 0.0
2015-Mar-02 06:33N 43°33' E 010°18'4 4.4
2015-Mar-02 05:33N 43°30' E 010°14'1615.9
2015-Mar-02 04:32N 43°20' E 009°56'13 0.4
2015-Feb-28 22:18N 43°10' E 010°07'810.9
2015-Feb-28 21:34N 43°18' E 010°09'1111.3
2015-Feb-28 20:33N 43°29' E 010°13'6 5.7
2015-Feb-28 19:33N 43°33' E 010°18'0 0.0
2015-Feb-28 18:33N 43°33' E 010°18'1 0.9
2015-Feb-28 17:33N 43°32' E 010°17'1514.7
2015-Feb-28 16:34N 43°22' E 010°03'1616.4
2015-Feb-28 15:33N 43°10' E 009°47'15 2.1
2015-Feb-28 08:29N 43°16' E 010°06'1516.7
2015-Feb-28 07:33N 43°31' E 010°13'4 4.5
2015-Feb-28 06:33N 43°33' E 010°18'2 1.5
2015-Feb-28 05:33N 43°32' E 010°16'1515.0
2015-Feb-28 04:33N 43°18' E 010°10'3 0.1
2015-Feb-26 21:33N 43°15' E 010°07'1716.6
2015-Feb-26 20:34N 43°31' E 010°13'4 4.0
2015-Feb-26 19:33N 43°33' E 010°18'0 0.0
2015-Feb-26 18:33N 43°33' E 010°18'0 0.0
2015-Feb-26 17:33N 43°33' E 010°18'1110.8
2015-Feb-26 16:33N 43°24' E 010°11'1616.4
2015-Feb-26 15:33N 43°08' E 010°03'1615.2
2015-Feb-26 14:28N 42°54' E 009°50'18 3.2
2015-Feb-26 09:04N 43°09' E 010°04'815.7
2015-Feb-26 08:33N 43°17' E 010°06'1615.6
2015-Feb-26 07:33N 43°31' E 010°14'3 3.2
2015-Feb-26 06:33N 43°33' E 010°18'0 0.2
2015-Feb-26 05:34N 43°33' E 010°18'1212.1
2015-Feb-26 04:33N 43°22' E 010°11'1716.9
2015-Feb-26 03:33N 43°06' E 010°05'22 0.8
2015-Feb-24 23:24N 42°47' E 009°50'3016.4
2015-Feb-24 21:33N 43°15' E 010°06'1616.2
2015-Feb-24 20:33N 43°30' E 010°12'5 5.0
2015-Feb-24 19:33N 43°33' E 010°18'0 0.0
2015-Feb-24 18:33N 43°33' E 010°18'0 0.1
2015-Feb-24 17:33N 43°33' E 010°18'1111.5
2015-Feb-24 16:33N 43°23' E 010°10'7 0.9
2015-Feb-24 08:33N 43°16' E 010°07'1615.9
2015-Feb-24 07:33N 43°31' E 010°14'3 3.2
2015-Feb-24 06:33N 43°33' E 010°18'0 0.0
2015-Feb-24 05:33N 43°33' E 010°18'1010.5
2015-Feb-24 04:33N 43°24' E 010°12'1917.2
2015-Feb-24 03:26N 43°05' E 010°06'  
Track history (hours):
 
Tides and Currents Weather Stations Pressure Air Temp Water Temp Dewpoint Dewpoint Depression Visibility Wind Speed Wind Dir Waves Ship Positions

Sardinia Vera

Last reported at 2015-Mar-05 21:33 UTC. Time now 2015-Mar-05 22:31 UTC.
Position N 40°55' E 009°31'.

; draft 5.2 m.

Type: Passenger vessel. MMSI: 247392000.

Date/timePositionNaut miles runAvg speedWind from/ knotsBaromVisibWave heightAir tempDewpointWater temp
2015-Mar-05 21:33N 40°55' E 009°31'0 0.0
2015-Mar-05 20:33N 40°55' E 009°31'0 0.0
2015-Mar-05 19:33N 40°55' E 009°31'0 0.0
2015-Mar-05 18:33N 40°55' E 009°31'0 0.0
2015-Mar-05 17:33N 40°55' E 009°31'0 0.0
2015-Mar-05 16:33N 40°55' E 009°31'0 0.0
2015-Mar-05 15:33N 40°55' E 009°31'0 0.0
2015-Mar-05 14:33N 40°55' E 009°31'0 0.0
2015-Mar-05 13:33N 40°55' E 009°31'0 0.0
2015-Mar-05 12:33N 40°55' E 009°31'0 0.0
2015-Mar-05 11:33N 40°55' E 009°31'0 0.0
2015-Mar-05 10:33N 40°55' E 009°31'0 0.0
2015-Mar-05 09:33N 40°55' E 009°31'0 0.0
2015-Mar-05 08:33N 40°55' E 009°31'0 0.0
2015-Mar-05 07:33N 40°55' E 009°31'14314.2
2015-Mar-04 21:32N 43°15' E 010°07'1616.4
2015-Mar-04 20:34N 43°31' E 010°13'4 4.1
2015-Mar-04 19:33N 43°33' E 010°18'0 0.0
2015-Mar-04 18:33N 43°33' E 010°18'2 1.8
2015-Mar-04 17:33N 43°32' E 010°16'1615.8
2015-Mar-04 16:34N 43°20' E 010°01'9 1.2
2015-Mar-04 09:11N 43°12' E 010°05'1016.1
2015-Mar-04 08:33N 43°22' E 010°09'1312.9
2015-Mar-04 07:34N 43°33' E 010°18'0 0.1
2015-Mar-04 06:33N 43°33' E 010°18'0 0.3
2015-Mar-04 05:33N 43°33' E 010°18'1313.5
2015-Mar-04 04:33N 43°20' E 010°11'1716.5
2015-Mar-04 03:32N 43°04' E 010°06'1 0.0
2015-Mar-02 22:31N 43°05' E 010°05'1414.4
2015-Mar-02 21:33N 43°18' E 010°09'1313.2
2015-Mar-02 20:34N 43°31' E 010°14'4 3.5
2015-Mar-02 19:30N 43°33' E 010°18'0 0.0
2015-Mar-02 15:06N 43°33' E 010°18'0 0.0
2015-Mar-02 14:30N 43°33' E 010°18'0 0.0
2015-Mar-02 13:12N 43°33' E 010°18'0 0.0
2015-Mar-02 11:33N 43°33' E 010°18'0 0.0
2015-Mar-02 10:15N 43°33' E 010°18'0 0.0
2015-Mar-02 09:33N 43°33' E 010°18'0 0.0
2015-Mar-02 08:30N 43°33' E 010°18'0 0.0
2015-Mar-02 07:33N 43°33' E 010°18'0 0.0
2015-Mar-02 06:33N 43°33' E 010°18'4 4.4
2015-Mar-02 05:33N 43°30' E 010°14'1615.9
2015-Mar-02 04:32N 43°20' E 009°56'13 0.4
2015-Feb-28 22:18N 43°10' E 010°07'810.9
2015-Feb-28 21:34N 43°18' E 010°09'1111.3
2015-Feb-28 20:33N 43°29' E 010°13'6 5.7
2015-Feb-28 19:33N 43°33' E 010°18'0 0.0
2015-Feb-28 18:33N 43°33' E 010°18'1 0.9
2015-Feb-28 17:33N 43°32' E 010°17'1514.7
2015-Feb-28 16:34N 43°22' E 010°03'1616.4
2015-Feb-28 15:33N 43°10' E 009°47'15 2.1
2015-Feb-28 08:29N 43°16' E 010°06'1516.7
2015-Feb-28 07:33N 43°31' E 010°13'4 4.5
2015-Feb-28 06:33N 43°33' E 010°18'2 1.5
2015-Feb-28 05:33N 43°32' E 010°16'1515.0
2015-Feb-28 04:33N 43°18' E 010°10'3 0.1
2015-Feb-26 21:33N 43°15' E 010°07'1716.6
2015-Feb-26 20:34N 43°31' E 010°13'4 4.0
2015-Feb-26 19:33N 43°33' E 010°18'0 0.0
2015-Feb-26 18:33N 43°33' E 010°18'0 0.0
2015-Feb-26 17:33N 43°33' E 010°18'1110.8
2015-Feb-26 16:33N 43°24' E 010°11'1616.4
2015-Feb-26 15:33N 43°08' E 010°03'1615.2
2015-Feb-26 14:28N 42°54' E 009°50'18 3.2
2015-Feb-26 09:04N 43°09' E 010°04'815.7
2015-Feb-26 08:33N 43°17' E 010°06'1615.6
2015-Feb-26 07:33N 43°31' E 010°14'3 3.2
2015-Feb-26 06:33N 43°33' E 010°18'0 0.2
2015-Feb-26 05:34N 43°33' E 010°18'1212.1
2015-Feb-26 04:33N 43°22' E 010°11'1716.9
2015-Feb-26 03:33N 43°06' E 010°05'22 0.8
2015-Feb-24 23:24N 42°47' E 009°50'3016.4
2015-Feb-24 21:33N 43°15' E 010°06'1616.2
2015-Feb-24 20:33N 43°30' E 010°12'5 5.0
2015-Feb-24 19:33N 43°33' E 010°18'0 0.0
2015-Feb-24 18:33N 43°33' E 010°18'0 0.1
2015-Feb-24 17:33N 43°33' E 010°18'1111.5
2015-Feb-24 16:33N 43°23' E 010°10'7 0.9
2015-Feb-24 08:33N 43°16' E 010°07'1615.9
2015-Feb-24 07:33N 43°31' E 010°14'3 3.2
2015-Feb-24 06:33N 43°33' E 010°18'0 0.0
2015-Feb-24 05:33N 43°33' E 010°18'1010.5
2015-Feb-24 04:33N 43°24' E 010°12'1917.2
2015-Feb-24 03:26N 43°05' E 010°06'  

Dump ship's entire track history